Time;durP1;ratioP1;P1;durP2;ratioP2;P2;SDS_P1;SDS_P2;PMS_P1;PMS_P2;Temp;Humidity;BMP_temperature;BMP_pressure;BME280_temperature;BME280_humidity;BME280_pressure;Samples;Min_cycle;Max_cycle;Signal;HPM_P1;HPM_P2
2022/08/22 00:01:24;;;;;;;5.73;3.40;;;16.20;99.90;;;;;;5028596;28;20422;-77
2022/08/22 00:04:20;;;;;;;9.73;3.70;;;16.20;99.90;;;;;;5030613;28;21267;-77
2022/08/22 00:06:58;;;;;;;5.27;3.40;;;16.10;99.90;;;;;;5029066;28;20462;-77
2022/08/22 00:09:30;;;;;;;6.20;2.70;;;16.00;99.90;;;;;;5030884;28;20443;-78
2022/08/22 00:12:34;;;;;;;5.50;3.63;;;16.00;99.90;;;;;;5028600;28;20490;-78
2022/08/22 00:15:25;;;;;;;4.73;2.80;;;15.90;99.90;;;;;;5028811;28;20538;-76
2022/08/22 00:18:01;;;;;;;6.20;2.83;;;15.90;99.90;;;;;;5030146;28;20409;-77
2022/08/22 00:20:35;;;;;;;6.03;3.50;;;15.90;99.90;;;;;;5030296;28;20928;-76
2022/08/22 00:23:32;;;;;;;6.40;2.50;;;15.80;99.90;;;;;;5028651;28;20434;-76
2022/08/22 00:26:14;;;;;;;5.50;2.70;;;15.90;99.90;;;;;;5030142;28;20499;-76
2022/08/22 00:28:45;;;;;;;3.80;2.70;;;15.90;99.90;;;;;;5030043;28;20412;-76
2022/08/22 00:31:20;;;;;;;6.43;2.83;;;15.80;99.90;;;;;;5030141;28;20982;-76
2022/08/22 00:33:59;;;;;;;5.97;3.30;;;15.80;99.90;;;;;;5029730;28;20547;-77
2022/08/22 00:36:52;;;;;;;6.43;3.63;;;15.80;99.90;;;;;;5028616;28;20473;-77
2022/08/22 00:39:34;;;;;;;6.17;3.00;;;15.80;99.90;;;;;;5028295;28;20476;-77
2022/08/22 00:42:12;;;;;;;5.17;3.20;;;15.80;99.90;;;;;;5029922;28;20524;-77
2022/08/22 00:45:13;;;;;;;4.60;2.80;;;15.80;99.90;;;;;;5029745;28;20458;-77
2022/08/22 00:47:44;;;;;;;7.73;2.93;;;15.80;99.90;;;;;;5029757;28;20457;-76
2022/08/22 00:50:29;;;;;;;5.97;3.10;;;15.70;99.90;;;;;;5029720;28;20433;-75
2022/08/22 00:53:15;;;;;;;6.00;3.17;;;15.50;99.90;;;;;;5029434;28;20432;-76
2022/08/22 00:56:00;;;;;;;4.23;3.03;;;15.40;99.90;;;;;;5028180;28;20424;-76
2022/08/22 00:59:03;;;;;;;5.70;3.50;;;15.40;99.90;;;;;;5029576;28;20435;-74
2022/08/22 01:01:34;;;;;;;9.23;3.30;;;15.40;99.90;;;;;;4987493;28;20425;-75
2022/08/22 01:04:38;;;;;;;6.47;3.67;;;15.40;99.90;;;;;;4987730;28;20483;-75
2022/08/22 01:07:23;;;;;;;5.47;3.47;;;15.50;99.90;;;;;;5008062;28;20499;-75
2022/08/22 01:10:16;;;;;;;3.80;3.00;;;15.60;99.90;;;;;;5029628;28;20464;-75
2022/08/22 01:13:04;;;;;;;6.17;3.33;;;15.60;99.90;;;;;;5029671;28;20442;-76
2022/08/22 01:15:34;;;;;;;5.50;3.27;;;15.60;99.90;;;;;;5027821;28;20438;-76
2022/08/22 01:18:57;;;;;;;6.90;2.90;;;15.70;99.90;;;;;;5029910;28;20428;-76
2022/08/22 01:22:01;;;;;;;3.20;2.80;;;15.80;99.90;;;;;;4987900;28;20597;-75
2022/08/22 01:25:16;;;;;;;4.03;2.90;;;15.70;99.90;;;;;;4987967;28;20959;-75
2022/08/22 01:27:49;;;;;;;7.00;3.20;;;15.60;99.90;;;;;;5028083;28;20479;-75
2022/08/22 01:30:56;;;;;;;4.23;3.27;;;15.50;99.90;;;;;;5029760;28;20407;-75
2022/08/22 01:34:06;;;;;;;6.40;3.07;;;15.50;99.90;;;;;;5028084;28;20468;-75
2022/08/22 01:36:55;;;;;;;6.90;3.43;;;15.60;99.90;;;;;;5001250;28;20426;-75
2022/08/22 01:39:39;;;;;;;5.50;3.60;;;15.60;99.90;;;;;;5026936;28;20427;-76
2022/08/22 01:42:20;;;;;;;3.87;2.77;;;15.60;99.90;;;;;;5029259;28;20460;-76
2022/08/22 01:44:55;;;;;;;5.23;3.80;;;15.70;99.90;;;;;;5028809;28;20436;-76
2022/08/22 01:47:47;;;;;;;5.60;3.60;;;15.60;99.90;;;;;;5027316;28;20471;-76
2022/08/22 01:50:38;;;;;;;7.37;3.30;;;15.70;99.90;;;;;;5027060;28;20567;-75
2022/08/22 01:53:29;;;;;;;5.57;3.27;;;15.70;99.90;;;;;;5028497;28;20471;-75
2022/08/22 01:56:11;;;;;;;6.40;3.03;;;15.70;99.90;;;;;;5027349;28;20456;-74
2022/08/22 01:58:44;;;;;;;6.80;3.67;;;15.70;99.90;;;;;;5026913;28;20456;-74
2022/08/22 02:01:39;;;;;;;6.10;3.43;;;15.70;99.90;;;;;;5028608;28;20421;-74
2022/08/22 02:04:31;;;;;;;5.50;3.30;;;15.70;99.90;;;;;;5027866;28;20424;-73
2022/08/22 02:07:21;;;;;;;9.43;3.37;;;15.60;99.90;;;;;;5028422;28;20525;-73
2022/08/22 02:09:58;;;;;;;5.90;3.20;;;15.50;99.90;;;;;;5028483;28;20916;-73
2022/08/22 02:12:40;;;;;;;4.80;3.00;;;15.40;99.90;;;;;;5027239;28;20447;-76
2022/08/22 02:15:24;;;;;;;10.90;3.93;;;15.40;99.90;;;;;;5028302;28;20833;-77
2022/08/22 02:17:58;;;;;;;6.70;3.50;;;15.30;99.90;;;;;;5028383;28;20453;-77
2022/08/22 02:20:32;;;;;;;7.73;3.57;;;15.20;99.90;;;;;;5028237;28;20418;-77
2022/08/22 02:23:04;;;;;;;5.43;3.60;;;15.20;99.90;;;;;;5028410;28;20444;-77
2022/08/22 02:25:44;;;;;;;7.47;3.37;;;15.10;99.90;;;;;;5028676;28;20444;-77
2022/08/22 02:28:18;;;;;;;5.23;3.50;;;15.10;99.90;;;;;;5028400;28;20450;-77
2022/08/22 02:30:46;;;;;;;5.70;3.47;;;15.10;99.90;;;;;;5027040;28;20415;-77
2022/08/22 02:33:27;;;;;;;4.90;3.60;;;15.10;99.90;;;;;;5028035;28;20460;-77
2022/08/22 02:36:05;;;;;;;3.60;3.20;;;15.00;99.90;;;;;;5026870;28;20459;-77
2022/08/22 02:39:05;;;;;;;5.13;3.50;;;15.00;99.90;;;;;;5028332;28;20452;-77
2022/08/22 02:41:49;;;;;;;6.30;3.30;;;14.90;99.90;;;;;;5028201;28;20487;-78
2022/08/22 02:44:19;;;;;;;6.73;3.27;;;14.90;99.90;;;;;;5028365;28;20415;-77
2022/08/22 02:46:55;;;;;;;7.33;3.80;;;14.90;99.90;;;;;;5026755;28;20942;-76
2022/08/22 02:49:53;;;;;;;6.13;4.07;;;14.90;99.90;;;;;;5026894;28;20443;-76
2022/08/22 02:52:29;;;;;;;7.03;3.80;;;14.90;99.90;;;;;;5028315;28;20498;-76
2022/08/22 02:55:04;;;;;;;5.80;3.40;;;14.70;99.90;;;;;;5028147;28;20472;-76
2022/08/22 02:57:43;;;;;;;7.40;3.80;;;14.60;99.90;;;;;;5028146;28;20442;-76
2022/08/22 03:00:21;;;;;;;9.23;3.70;;;14.60;99.90;;;;;;5028238;28;20862;-77
2022/08/22 03:02:56;;;;;;;5.90;3.60;;;14.50;99.90;;;;;;5031895;28;20434;-77
2022/08/22 03:05:39;;;;;;;5.70;4.40;;;14.40;99.90;;;;;;5032178;28;20419;-76
2022/08/22 03:08:21;;;;;;;4.13;3.60;;;14.30;99.90;;;;;;5031894;28;20411;-76
2022/08/22 03:11:05;;;;;;;10.20;3.30;;;14.40;99.90;;;;;;5031618;28;20432;-77
2022/08/22 03:13:48;;;;;;;6.60;3.97;;;14.40;99.90;;;;;;5032601;28;20510;-77
2022/08/22 03:16:33;;;;;;;7.23;3.90;;;14.40;99.90;;;;;;5032801;28;20455;-77
2022/08/22 03:19:10;;;;;;;4.60;3.70;;;14.30;99.90;;;;;;5032639;28;20789;-77
2022/08/22 03:21:42;;;;;;;6.33;3.80;;;14.40;99.90;;;;;;5032568;28;20441;-77
2022/08/22 03:24:23;;;;;;;5.03;4.20;;;14.50;99.90;;;;;;5030662;28;20463;-77
2022/08/22 03:26:56;;;;;;;6.30;4.00;;;14.50;99.90;;;;;;5045101;28;20442;-76
2022/08/22 03:29:28;;;;;;;4.53;4.10;;;14.40;99.90;;;;;;5058198;28;20435;-76
2022/08/22 03:32:05;;;;;;;6.80;4.10;;;14.30;99.90;;;;;;5058266;28;20480;-77
2022/08/22 03:34:31;;;;;;;13.27;4.70;;;13.90;99.90;;;;;;5051633;28;20431;-77
2022/08/22 03:37:20;;;;;;;7.17;4.10;;;13.80;99.90;;;;;;5032470;28;20434;-77
2022/08/22 03:39:55;;;;;;;6.17;4.20;;;13.60;99.90;;;;;;5031379;28;20646;-77
2022/08/22 03:42:33;;;;;;;6.00;4.10;;;13.70;99.90;;;;;;5029412;28;20465;-77
2022/08/22 03:45:25;;;;;;;6.87;4.27;;;13.70;99.90;;;;;;5029718;28;20509;-77
2022/08/22 03:47:51;;;;;;;6.17;3.57;;;13.70;99.90;;;;;;5029423;28;21096;-77
2022/08/22 03:50:38;;;;;;;11.37;4.40;;;13.60;99.90;;;;;;5030799;28;20422;-78
2022/08/22 03:53:31;;;;;;;12.37;5.10;;;13.40;99.90;;;;;;5030502;28;20213;-76
2022/08/22 03:56:21;;;;;;;7.83;3.77;;;13.40;99.90;;;;;;5029204;28;20449;-75
2022/08/22 03:59:18;;;;;;;12.30;4.50;;;13.40;99.90;;;;;;5030365;28;20423;-75
2022/08/22 04:01:52;;;;;;;7.90;4.60;;;13.40;99.90;;;;;;5029136;28;20407;-75
2022/08/22 04:04:34;;;;;;;7.07;3.60;;;13.40;99.90;;;;;;5030826;28;20454;-75
2022/08/22 04:07:38;;;;;;;5.00;3.97;;;13.50;99.90;;;;;;5030145;28;20411;-75
2022/08/22 04:10:25;;;;;;;11.87;3.30;;;13.50;99.90;;;;;;5030399;28;20472;-75
2022/08/22 04:13:36;;;;;;;5.93;3.73;;;13.60;99.90;;;;;;5030262;28;20518;-75
2022/08/22 04:16:05;;;;;;;10.40;4.33;;;13.70;99.90;;;;;;5030294;28;20407;-75
2022/08/22 04:18:55;;;;;;;8.73;3.70;;;13.80;99.90;;;;;;5030338;28;20419;-76
2022/08/22 04:21:43;;;;;;;6.53;3.73;;;13.90;99.90;;;;;;5028520;28;20430;-76
2022/08/22 04:24:43;;;;;;;9.53;4.37;;;14.00;99.90;;;;;;5030243;28;20471;-78
2022/08/22 04:27:08;;;;;;;4.27;3.60;;;14.10;99.90;;;;;;5029889;28;20904;-76
2022/08/22 04:30:00;;;;;;;7.90;4.07;;;14.10;99.90;;;;;;5030096;28;20446;-76
2022/08/22 04:32:26;;;;;;;7.73;4.03;;;14.10;99.90;;;;;;5019479;28;20737;-77
2022/08/22 04:35:09;;;;;;;8.60;3.63;;;14.10;99.90;;;;;;5029918;28;20883;-76
2022/08/22 04:37:38;;;;;;;6.90;4.57;;;14.10;99.90;;;;;;5028888;28;20573;-76
2022/08/22 04:40:20;;;;;;;5.13;4.03;;;14.20;99.90;;;;;;5030301;28;20928;-76
2022/08/22 04:42:55;;;;;;;5.63;3.83;;;14.20;99.90;;;;;;5030072;28;20493;-76
2022/08/22 04:45:40;;;;;;;8.87;4.13;;;14.30;99.90;;;;;;5027694;28;20434;-76
2022/08/22 04:48:14;;;;;;;12.33;3.90;;;14.30;99.90;;;;;;5027424;28;20423;-77
2022/08/22 04:50:43;;;;;;;5.37;3.77;;;14.30;99.90;;;;;;5029018;28;20464;-77
2022/08/22 04:53:09;;;;;;;5.73;3.70;;;14.30;99.90;;;;;;5027101;28;20443;-76
2022/08/22 04:55:52;;;;;;;5.23;4.27;;;14.20;99.90;;;;;;5027046;28;20427;-76
2022/08/22 04:58:53;;;;;;;6.00;3.57;;;14.20;99.90;;;;;;5028354;28;20477;-77
2022/08/22 05:01:24;;;;;;;8.80;3.93;;;14.30;99.90;;;;;;5028113;28;21259;-77
2022/08/22 05:03:59;;;;;;;6.13;3.77;;;14.20;99.90;;;;;;5028271;28;20472;-77
2022/08/22 05:06:29;;;;;;;4.00;3.60;;;14.20;99.90;;;;;;5028228;28;20422;-77
2022/08/22 05:09:01;;;;;;;9.70;3.93;;;14.10;99.90;;;;;;5028358;28;20415;-77
2022/08/22 05:11:29;;;;;;;8.23;3.70;;;14.10;99.90;;;;;;5028004;28;20479;-77
2022/08/22 05:14:04;;;;;;;6.50;4.37;;;14.00;99.90;;;;;;5026328;28;20802;-76
2022/08/22 05:16:37;;;;;;;8.00;4.30;;;14.20;99.90;;;;;;5028217;28;20426;-77
2022/08/22 05:19:09;;;;;;;7.90;4.00;;;14.20;99.90;;;;;;5028463;28;21253;-76
2022/08/22 05:21:39;;;;;;;7.37;3.83;;;14.30;99.90;;;;;;5026957;28;20436;-76
2022/08/22 05:24:20;;;;;;;6.17;3.90;;;14.30;99.90;;;;;;5027500;28;20455;-76
2022/08/22 05:26:51;;;;;;;6.40;4.40;;;14.30;99.90;;;;;;5028076;28;20418;-76
2022/08/22 05:29:21;;;;;;;9.80;4.30;;;14.20;99.90;;;;;;5026670;28;20436;-76
2022/08/22 05:31:57;;;;;;;4.53;3.83;;;14.20;99.90;;;;;;5028413;28;20416;-77
2022/08/22 05:34:27;;;;;;;10.63;3.67;;;14.30;99.90;;;;;;5028175;28;21023;-76
2022/08/22 05:37:10;;;;;;;13.20;4.53;;;14.50;99.90;;;;;;5010682;28;20991;-76
2022/08/22 05:39:39;;;;;;;8.20;3.87;;;14.60;99.90;;;;;;5028014;28;20445;-77
2022/08/22 05:42:24;;;;;;;9.50;3.80;;;14.80;99.90;;;;;;5026371;28;20450;-77
2022/08/22 05:44:50;;;;;;;5.33;4.00;;;14.90;99.90;;;;;;5027685;28;20463;-77
2022/08/22 05:47:21;;;;;;;8.67;3.50;;;15.10;99.90;;;;;;5026407;28;20922;-76
2022/08/22 05:49:58;;;;;;;8.93;4.10;;;15.20;99.90;;;;;;5027629;28;20490;-77
2022/08/22 05:52:46;;;;;;;6.73;4.20;;;15.30;99.90;;;;;;5026343;28;20437;-77
2022/08/22 05:55:36;;;;;;;12.23;4.23;;;15.40;99.90;;;;;;5026749;28;21082;-77
2022/08/22 05:58:35;;;;;;;9.23;4.00;;;15.60;99.90;;;;;;5028005;28;20558;-76
2022/08/22 06:01:45;;;;;;;7.30;3.93;;;15.80;99.90;;;;;;5028168;28;20408;-77
2022/08/22 06:04:23;;;;;;;5.00;3.40;;;16.00;99.90;;;;;;4986032;28;20468;-76
2022/08/22 06:06:56;;;;;;;7.60;4.30;;;16.30;99.90;;;;;;4986092;28;20464;-77
2022/08/22 06:09:40;;;;;;;5.37;3.77;;;16.50;99.90;;;;;;5010903;28;20432;-76
2022/08/22 06:12:29;;;;;;;7.10;3.67;;;16.50;99.90;;;;;;5027889;28;20431;-77
2022/08/22 06:15:29;;;;;;;5.10;3.70;;;16.60;99.90;;;;;;5027790;28;20413;-76
2022/08/22 06:17:55;;;;;;;7.10;3.37;;;16.70;99.90;;;;;;5027888;28;20409;-76
2022/08/22 06:20:44;;;;;;;5.10;3.33;;;16.80;99.90;;;;;;5027661;28;20419;-78
2022/08/22 06:23:16;;;;;;;3.70;3.20;;;16.90;99.90;;;;;;5027269;28;20616;-77
2022/08/22 06:25:45;;;;;;;9.60;3.60;;;17.20;99.90;;;;;;5027437;28;20911;-77
2022/08/22 06:28:20;;;;;;;4.97;3.67;;;17.50;99.90;;;;;;5027689;28;20453;-77
2022/08/22 06:30:48;;;;;;;9.53;4.23;;;17.70;99.90;;;;;;5028021;28;20687;-77
2022/08/22 06:33:20;;;;;;;8.60;4.60;;;17.70;99.90;;;;;;5027753;28;20791;-77
2022/08/22 06:38:55;;;;;;;6.00;3.60;;;17.90;99.90;;;;;;5030811;28;20558;-77
2022/08/22 06:41:25;;;;;;;8.47;4.10;;;18.00;99.90;;;;;;5031394;28;20418;-76
2022/08/22 06:43:51;;;;;;;3.90;3.00;;;18.10;99.90;;;;;;5031158;28;20465;-77
2022/08/22 06:46:19;;;;;;;5.43;3.23;;;18.10;99.90;;;;;;5031397;28;20406;-77
2022/08/22 06:48:46;;;;;;;5.70;3.83;;;18.10;99.90;;;;;;5029865;28;20904;-77
2022/08/22 06:51:14;;;;;;;5.83;3.60;;;18.30;99.90;;;;;;5013308;28;20457;-77
2022/08/22 06:53:45;;;;;;;5.47;3.50;;;18.50;99.90;;;;;;5029574;28;20450;-76
2022/08/22 06:56:12;;;;;;;5.10;4.30;;;18.70;99.90;;;;;;5030904;28;20421;-76
2022/08/22 06:58:46;;;;;;;7.27;3.93;;;18.70;99.90;;;;;;5029545;28;20490;-77
2022/08/22 07:01:19;;;;;;;5.87;3.23;;;18.50;99.90;;;;;;5029586;28;20518;-76
2022/08/22 07:04:07;;;;;;;11.63;4.30;;;18.50;99.90;;;;;;5029415;28;20465;-77
2022/08/22 07:06:35;;;;;;;6.10;3.80;;;18.40;99.90;;;;;;5029029;28;20493;-77
2022/08/22 07:09:01;;;;;;;6.17;3.70;;;18.50;99.90;;;;;;5030249;28;20450;-77
2022/08/22 07:11:29;;;;;;;6.27;3.77;;;18.50;99.90;;;;;;5028546;28;20429;-77
2022/08/22 07:13:56;;;;;;;7.70;3.97;;;18.50;99.90;;;;;;5028643;28;20438;-77
2022/08/22 07:17:02;;;;;;;5.13;3.47;;;18.50;99.90;;;;;;5029955;28;20505;-77
2022/08/22 07:19:32;;;;;;;7.10;3.63;;;18.50;99.90;;;;;;5012925;28;20430;-77
2022/08/22 07:22:10;;;;;;;7.57;3.70;;;18.60;99.90;;;;;;5028481;28;20980;-76
2022/08/22 07:24:40;;;;;;;9.47;4.03;;;18.70;99.90;;;;;;5029961;28;20469;-77
2022/08/22 07:27:24;;;;;;;5.53;3.30;;;18.80;99.90;;;;;;5028439;28;20445;-76
2022/08/22 07:30:13;;;;;;;5.60;3.70;;;18.80;99.90;;;;;;5030454;28;21081;-76
2022/08/22 07:33:00;;;;;;;10.90;3.20;;;18.90;99.90;;;;;;5029802;28;20425;-77
2022/08/22 07:35:28;;;;;;;6.43;3.20;;;18.90;99.90;;;;;;5029458;28;21099;-77
2022/08/22 07:37:54;;;;;;;3.50;3.20;;;19.00;99.90;;;;;;5029644;28;20497;-77
2022/08/22 07:40:40;;;;;;;4.50;3.20;;;19.10;99.90;;;;;;5029605;28;20438;-76
2022/08/22 07:43:28;;;;;;;5.60;3.30;;;19.20;99.90;;;;;;5016947;28;20462;-77
2022/08/22 07:46:06;;;;;;;5.97;3.27;;;19.20;99.90;;;;;;5029521;28;20411;-77
2022/08/22 07:48:55;;;;;;;9.43;4.07;;;19.30;99.90;;;;;;5027977;28;20410;-77
2022/08/22 07:51:33;;;;;;;8.43;4.27;;;19.40;99.90;;;;;;5029410;28;20419;-77
2022/08/22 07:54:06;;;;;;;9.07;3.17;;;19.40;99.90;;;;;;5027823;28;20452;-77
2022/08/22 07:56:58;;;;;;;6.00;4.33;;;19.50;99.90;;;;;;5027755;28;20474;-77
2022/08/22 07:59:27;;;;;;;7.37;3.23;;;19.60;99.90;;;;;;5022340;28;20499;-77
2022/08/22 08:01:55;;;;;;;7.93;4.37;;;19.60;99.90;;;;;;5029264;28;21068;-77
2022/08/22 08:04:29;;;;;;;10.07;3.93;;;19.70;99.90;;;;;;5029354;28;21326;-77
2022/08/22 08:06:58;;;;;;;5.97;3.63;;;19.80;99.90;;;;;;5029155;28;20951;-77
2022/08/22 08:09:29;;;;;;;6.97;3.60;;;19.90;99.90;;;;;;5028967;28;20419;-77
2022/08/22 08:11:56;;;;;;;7.43;3.33;;;20.00;99.90;;;;;;5028669;28;20970;-77
2022/08/22 08:14:24;;;;;;;5.93;3.70;;;20.10;99.90;;;;;;5027414;28;20532;-77
2022/08/22 08:17:29;;;;;;;6.90;3.83;;;20.30;99.90;;;;;;5029083;28;20572;-77
2022/08/22 08:19:56;;;;;;;4.33;3.07;;;20.30;99.90;;;;;;4950960;28;20920;-77
2022/08/22 08:22:25;;;;;;;5.10;4.13;;;20.50;99.90;;;;;;4967064;28;20458;-77
2022/08/22 08:24:56;;;;;;;7.17;3.60;;;20.60;99.90;;;;;;4988016;28;20495;-77
2022/08/22 08:30:13;;;;;;;6.90;3.73;;;20.80;99.90;;;;;;5027669;28;20501;-77
2022/08/22 08:32:41;;;;;;;5.17;3.80;;;21.00;99.90;;;;;;5028330;28;20439;-77
2022/08/22 08:35:22;;;;;;;8.93;4.30;;;21.10;99.90;;;;;;5028341;28;20502;-77
2022/08/22 08:37:54;;;;;;;10.33;3.40;;;21.20;99.90;;;;;;5028435;28;20428;-77
2022/08/22 08:40:30;;;;;;;6.80;3.40;;;21.30;99.90;;;;;;5027022;28;20934;-77
2022/08/22 08:43:28;;;;;;;5.80;3.60;;;21.50;99.90;;;;;;5028190;28;20430;-77
2022/08/22 08:46:19;;;;;;;6.23;3.90;;;21.70;99.90;;;;;;5028814;28;20411;-77
2022/08/22 08:49:03;;;;;;;4.97;3.47;;;21.90;99.90;;;;;;5028369;28;20406;-77
2022/08/22 08:51:34;;;;;;;6.33;3.10;;;22.00;99.90;;;;;;5027915;28;20410;-77
2022/08/22 08:54:07;;;;;;;9.43;3.73;;;22.20;99.90;;;;;;5029291;28;20502;-77
2022/08/22 08:56:54;;;;;;;11.73;3.90;;;22.40;99.90;;;;;;5029172;28;20414;-77
2022/08/22 08:59:31;;;;;;;4.63;3.33;;;22.50;99.90;;;;;;5029375;28;20502;-76
2022/08/22 09:02:09;;;;;;;5.57;3.50;;;22.60;99.90;;;;;;5030107;28;20438;-77
2022/08/22 09:04:40;;;;;;;7.30;3.87;;;22.90;99.90;;;;;;5030020;28;20547;-77
2022/08/22 09:07:12;;;;;;;10.97;3.60;;;23.10;99.90;;;;;;5029823;28;20429;-77
2022/08/22 09:09:57;;;;;;;7.40;4.00;;;23.40;99.90;;;;;;5029366;28;20401;-77
2022/08/22 09:12:29;;;;;;;7.17;3.83;;;23.70;99.90;;;;;;5029363;28;20539;-78
2022/08/22 09:14:57;;;;;;;5.83;3.60;;;24.00;99.90;;;;;;5028686;28;20429;-77
2022/08/22 09:17:54;;;;;;;5.83;3.70;;;24.20;99.00;;;;;;5029699;28;20428;-77
2022/08/22 09:20:29;;;;;;;8.30;3.83;;;24.50;98.80;;;;;;5029575;28;20412;-77
2022/08/22 09:23:22;;;;;;;6.47;3.40;;;24.90;99.90;;;;;;5029867;28;20490;-77
2022/08/22 09:25:59;;;;;;;5.97;3.80;;;25.20;98.60;;;;;;5030154;28;20531;-77
2022/08/22 09:28:38;;;;;;;7.63;3.80;;;25.10;97.70;;;;;;5049815;28;20459;-77
2022/08/22 09:31:26;;;;;;;4.97;3.23;;;24.70;98.90;;;;;;5053429;28;20405;-77
2022/08/22 09:34:17;;;;;;;7.00;3.90;;;24.20;99.90;;;;;;5052688;28;20543;-77
2022/08/22 09:36:55;;;;;;;3.77;3.27;;;24.50;99.90;;;;;;5043633;28;20418;-77
2022/08/22 09:39:31;;;;;;;3.90;3.60;;;25.10;99.90;;;;;;5031635;28;20807;-77
2022/08/22 09:42:10;;;;;;;5.60;3.80;;;25.70;99.00;;;;;;5033107;28;20468;-78
2022/08/22 09:44:50;;;;;;;7.27;3.87;;;26.20;97.00;;;;;;5030372;28;20900;-77
2022/08/22 09:47:32;;;;;;;4.90;4.20;;;26.80;96.80;;;;;;5032091;28;20433;-76
2022/08/22 09:50:29;;;;;;;8.23;4.60;;;26.90;95.30;;;;;;5033023;28;20825;-76
2022/08/22 09:53:20;;;;;;;6.53;4.00;;;26.30;95.90;;;;;;5029399;28;20427;-78
2022/08/22 09:55:48;;;;;;;4.50;3.60;;;25.60;98.30;;;;;;5026198;28;20422;-77
2022/08/22 09:58:35;;;;;;;5.07;3.70;;;25.00;99.90;;;;;;5027323;28;20905;-77
2022/08/22 10:01:08;;;;;;;7.43;3.90;;;24.70;99.90;;;;;;5028478;28;20428;-78
2022/08/22 10:04:11;;;;;;;4.07;3.67;;;25.50;99.90;;;;;;5028622;28;20879;-77
2022/08/22 10:06:57;;;;;;;4.10;3.70;;;26.50;99.90;;;;;;5028862;28;20778;-78
2022/08/22 10:09:55;;;;;;;9.07;4.00;;;27.60;96.40;;;;;;5028640;28;20488;-78
2022/08/22 10:12:31;;;;;;;7.90;4.30;;;27.10;93.60;;;;;;5019172;28;20476;-78
2022/08/22 10:15:29;;;;;;;6.03;4.00;;;26.60;94.40;;;;;;5014219;28;20434;-78
2022/08/22 10:18:17;;;;;;;3.93;3.53;;;26.20;95.80;;;;;;5032700;28;20514;-77
2022/08/22 10:21:34;;;;;;;7.97;5.13;;;25.70;98.20;;;;;;5029877;28;20959;-77
2022/08/22 10:24:16;;;;;;;5.87;4.37;;;25.30;99.40;;;;;;5007658;28;20474;-77
2022/08/22 10:26:50;;;;;;;6.47;5.17;;;25.00;99.90;;;;;;5030984;28;21041;-77
2022/08/22 10:29:35;;;;;;;8.80;3.80;;;24.80;99.90;;;;;;5029295;28;20445;-77
2022/08/22 10:32:32;;;;;;;8.47;4.40;;;24.70;99.60;;;;;;5030959;28;20897;-77
2022/08/22 10:35:20;;;;;;;5.50;4.23;;;24.50;98.50;;;;;;5025838;28;20776;-77
2022/08/22 10:37:59;;;;;;;5.10;4.60;;;24.50;99.90;;;;;;5030917;28;20427;-78
2022/08/22 10:40:28;;;;;;;5.80;4.20;;;24.40;99.90;;;;;;5031005;28;20991;-78
2022/08/22 10:42:59;;;;;;;5.30;3.93;;;24.30;99.90;;;;;;5030734;28;21025;-77
2022/08/22 10:45:39;;;;;;;5.63;4.70;;;24.30;99.60;;;;;;5029056;28;21016;-77
2022/08/22 10:48:05;;;;;;;5.30;4.00;;;24.30;99.90;;;;;;5030769;28;20838;-78
2022/08/22 10:50:46;;;;;;;5.00;3.93;;;24.40;99.90;;;;;;5030823;28;20416;-77
2022/08/22 10:53:56;;;;;;;4.67;3.83;;;24.40;99.90;;;;;;5030472;28;20205;-77
2022/08/22 10:56:30;;;;;;;4.37;4.03;;;24.40;99.90;;;;;;5030407;28;20416;-77
2022/08/22 10:59:36;;;;;;;4.47;3.77;;;24.60;99.90;;;;;;5028706;28;20897;-78
2022/08/22 11:02:11;;;;;;;5.80;4.20;;;24.80;98.20;;;;;;4995710;28;20465;-77
2022/08/22 11:05:15;;;;;;;6.90;4.77;;;25.80;97.90;;;;;;5030105;28;21150;-77
2022/08/22 11:08:12;;;;;;;6.67;4.27;;;25.80;96.60;;;;;;4968213;28;20524;-77
2022/08/22 11:10:56;;;;;;;7.20;3.90;;;25.50;97.10;;;;;;4944920;28;20436;-77
2022/08/22 11:13:48;;;;;;;8.03;3.60;;;25.50;99.40;;;;;;5012727;28;20454;-77
2022/08/22 11:16:22;;;;;;;5.10;3.90;;;25.50;99.90;;;;;;5010142;28;20436;-77
2022/08/22 11:19:01;;;;;;;10.50;4.70;;;25.70;99.90;;;;;;5030107;28;20443;-77
2022/08/22 11:21:58;;;;;;;4.73;3.67;;;26.60;97.80;;;;;;5029672;28;20480;-78
2022/08/22 11:24:30;;;;;;;5.80;4.20;;;27.40;94.00;;;;;;5028328;28;20467;-78
2022/08/22 11:27:09;;;;;;;6.80;3.90;;;27.80;91.70;;;;;;5029661;28;20458;-77
2022/08/22 11:30:11;;;;;;;5.87;3.40;;;27.90;87.20;;;;;;5031354;28;20423;-78
2022/08/22 11:33:08;;;;;;;3.60;3.30;;;27.80;79.80;;;;;;5031306;28;20449;-78
2022/08/22 11:36:03;;;;;;;4.23;3.77;;;27.40;80.00;;;;;;5030493;28;21185;-78
2022/08/22 11:38:40;;;;;;;11.47;4.20;;;27.00;79.40;;;;;;5030875;28;20422;-77
2022/08/22 11:41:22;;;;;;;4.50;3.47;;;26.40;77.00;;;;;;5030368;28;20450;-78
2022/08/22 11:44:29;;;;;;;5.47;4.30;;;26.50;87.40;;;;;;5031754;28;20834;-77
2022/08/22 11:46:57;;;;;;;3.73;3.03;;;26.90;84.70;;;;;;5017870;28;20484;-78
2022/08/22 11:49:41;;;;;;;5.20;4.00;;;27.70;82.00;;;;;;5031811;28;20426;-78
2022/08/22 11:52:10;;;;;;;5.03;3.90;;;28.40;77.90;;;;;;5031146;28;20556;-78
2022/08/22 11:55:15;;;;;;;8.00;3.70;;;28.60;73.40;;;;;;5033304;28;21153;-78
2022/08/22 11:57:55;;;;;;;3.90;3.50;;;29.10;71.90;;;;;;5030977;28;20426;-78
2022/08/22 12:00:26;;;;;;;8.63;3.60;;;29.00;72.60;;;;;;5031377;28;20492;-78
2022/08/22 12:02:55;;;;;;;3.83;3.40;;;28.90;69.00;;;;;;5030998;28;20435;-78
2022/08/22 12:05:28;;;;;;;3.80;3.30;;;29.50;71.60;;;;;;5031268;28;20516;-78
2022/08/22 12:08:07;;;;;;;4.53;3.47;;;29.90;72.30;;;;;;5029348;28;20426;-78
2022/08/22 12:10:41;;;;;;;7.20;3.97;;;30.30;69.60;;;;;;5030995;28;20433;-78
2022/08/22 12:13:17;;;;;;;9.37;4.20;;;30.70;68.60;;;;;;5031248;28;20489;-78
2022/08/22 12:16:16;;;;;;;3.40;3.10;;;30.60;67.10;;;;;;5030846;28;20421;-78
2022/08/22 12:19:06;;;;;;;5.80;3.47;;;30.00;67.10;;;;;;5031274;28;20431;-77
2022/08/22 12:21:36;;;;;;;4.90;3.30;;;29.20;69.00;;;;;;5028606;28;20423;-78
2022/08/22 12:24:23;;;;;;;5.37;3.67;;;28.60;71.60;;;;;;5030420;28;20458;-78
2022/08/22 12:27:07;;;;;;;5.30;3.37;;;28.10;73.10;;;;;;5029966;28;20461;-78
2022/08/22 12:29:36;;;;;;;6.33;3.40;;;27.90;74.80;;;;;;5029775;28;20422;-78
2022/08/22 12:32:17;;;;;;;3.13;2.90;;;28.40;73.80;;;;;;5028576;28;20439;-78
2022/08/22 12:34:54;;;;;;;6.03;3.33;;;29.10;72.90;;;;;;5028607;28;20419;-78
2022/08/22 12:37:28;;;;;;;4.73;3.40;;;28.80;68.40;;;;;;5029842;28;20910;-78
2022/08/22 12:40:00;;;;;;;3.43;3.13;;;28.40;68.30;;;;;;5029601;28;20793;-77
2022/08/22 12:42:53;;;;;;;3.63;3.00;;;28.10;71.90;;;;;;5028974;28;21198;-78
2022/08/22 12:45:44;;;;;;;3.87;3.53;;;27.90;69.90;;;;;;5029160;28;20549;-77
2022/08/22 12:48:33;;;;;;;3.97;3.50;;;27.70;69.30;;;;;;5029287;28;20411;-78
2022/08/22 12:51:40;;;;;;;3.00;2.80;;;28.40;70.20;;;;;;5029570;28;20403;-78
2022/08/22 12:54:30;;;;;;;4.57;3.77;;;29.20;65.80;;;;;;5008319;28;20425;-78
2022/08/22 12:57:24;;;;;;;3.60;3.30;;;29.60;65.00;;;;;;5027297;28;20442;-77
2022/08/22 13:00:09;;;;;;;4.60;3.30;;;29.20;67.00;;;;;;5028583;28;20419;-77
2022/08/22 13:02:38;;;;;;;3.00;2.80;;;29.10;66.70;;;;;;5026966;28;20438;-77
2022/08/22 13:05:16;;;;;;;4.90;3.13;;;28.80;66.60;;;;;;5026834;28;20889;-77
2022/08/22 13:07:49;;;;;;;6.50;3.50;;;28.30;68.60;;;;;;5028442;28;20954;-77
2022/08/22 13:10:14;;;;;;;3.77;2.80;;;28.40;68.40;;;;;;5026917;28;20423;-78
2022/08/22 13:12:46;;;;;;;3.50;3.17;;;28.60;67.70;;;;;;5026510;28;21026;-77
2022/08/22 13:15:28;;;;;;;2.90;2.70;;;28.40;67.90;;;;;;5026298;28;20564;-77
2022/08/22 13:17:55;;;;;;;3.97;2.70;;;28.70;68.90;;;;;;5028062;28;20423;-77
2022/08/22 13:20:29;;;;;;;4.60;3.00;;;29.10;67.00;;;;;;5026617;28;20415;-77
2022/08/22 13:22:57;;;;;;;5.70;3.53;;;29.00;63.40;;;;;;5026565;28;20460;-78
2022/08/22 13:25:29;;;;;;;3.43;2.70;;;29.20;65.80;;;;;;5012387;28;20470;-78
2022/08/22 13:27:58;;;;;;;3.17;2.93;;;29.50;65.20;;;;;;5029719;28;20908;-77
2022/08/22 13:30:34;;;;;;;4.43;3.00;;;29.60;63.90;;;;;;5029988;28;20443;-78
2022/08/22 13:33:11;;;;;;;2.83;2.63;;;29.70;63.70;;;;;;5029708;28;20439;-78
2022/08/22 13:35:43;;;;;;;4.33;3.20;;;29.90;63.80;;;;;;5029879;28;20449;-77
2022/08/22 13:38:12;;;;;;;5.43;4.00;;;30.00;63.80;;;;;;5030224;28;20407;-78
2022/08/22 13:40:45;;;;;;;7.37;3.50;;;30.20;62.60;;;;;;5029692;28;20448;-78
2022/08/22 13:43:16;;;;;;;2.90;2.70;;;30.20;62.60;;;;;;5029069;28;20923;-78
2022/08/22 13:45:52;;;;;;;4.27;3.57;;;30.20;61.80;;;;;;5027676;28;20471;-78
2022/08/22 13:48:21;;;;;;;3.33;2.90;;;30.20;61.90;;;;;;5027560;28;20872;-78
2022/08/22 13:51:15;;;;;;;4.37;2.70;;;30.20;59.60;;;;;;5028906;28;20462;-78
2022/08/22 13:53:43;;;;;;;5.57;2.90;;;30.30;60.00;;;;;;5029767;28;20463;-78
2022/08/22 13:56:19;;;;;;;5.10;2.90;;;30.20;58.70;;;;;;5029173;28;21096;-78
2022/08/22 13:58:53;;;;;;;3.30;3.00;;;30.10;59.70;;;;;;5029269;28;20446;-78
2022/08/22 14:01:49;;;;;;;3.43;2.97;;;30.10;60.00;;;;;;5028360;28;20453;-78